Time;durP1;ratioP1;P1;durP2;ratioP2;P2;SDS_P1;SDS_P2;PMS_P1;PMS_P2;Temp;Humidity;BMP_temperature;BMP_pressure;BME280_temperature;BME280_humidity;BME280_pressure;Samples;Min_cycle;Max_cycle;Signal;HPM_P1;HPM_P2
2021/09/04 00:00:17;;;;;;;11.18;6.35;;;14.90;99.90;;;;;;5097873;28;20165;-69
2021/09/04 00:02:43;;;;;;;10.30;6.85;;;15.00;99.90;;;;;;5097226;28;20024;-69
2021/09/04 00:05:09;;;;;;;9.23;6.18;;;14.90;99.90;;;;;;5094402;28;20036;-69
2021/09/04 00:07:34;;;;;;;12.10;7.35;;;14.90;99.90;;;;;;5080881;28;20047;-69
2021/09/04 00:10:00;;;;;;;11.75;7.05;;;14.90;99.90;;;;;;5094308;28;20043;-69
2021/09/04 00:12:28;;;;;;;10.80;6.93;;;14.90;99.90;;;;;;5097138;28;20032;-68
2021/09/04 00:14:54;;;;;;;14.95;8.13;;;14.80;99.90;;;;;;5128417;27;20366;-69
2021/09/04 00:17:20;;;;;;;10.73;7.13;;;14.90;99.90;;;;;;5128391;27;20097;-69
2021/09/04 00:19:47;;;;;;;11.30;7.38;;;14.80;99.90;;;;;;5096797;28;20043;-69
2021/09/04 00:22:13;;;;;;;12.27;7.25;;;14.80;99.90;;;;;;5094869;28;20055;-69
2021/09/04 00:24:38;;;;;;;11.85;7.63;;;14.90;99.90;;;;;;5094589;28;20035;-69
2021/09/04 00:27:06;;;;;;;10.45;8.25;;;14.90;99.90;;;;;;5097344;28;20066;-69
2021/09/04 00:29:32;;;;;;;11.75;8.73;;;14.90;99.90;;;;;;5096954;28;20474;-69
2021/09/04 00:31:58;;;;;;;11.10;8.25;;;14.90;99.90;;;;;;5093747;28;20089;-69
2021/09/04 00:34:24;;;;;;;10.63;8.32;;;14.90;99.90;;;;;;5097867;28;20043;-69
2021/09/04 00:36:50;;;;;;;16.95;9.20;;;14.90;99.90;;;;;;5093601;28;20127;-69
2021/09/04 00:39:15;;;;;;;11.70;8.07;;;14.80;99.90;;;;;;5096563;28;20125;-69
2021/09/04 00:41:41;;;;;;;16.92;9.77;;;14.80;99.90;;;;;;5097320;28;20044;-69
2021/09/04 00:44:13;;;;;;;10.60;8.68;;;14.80;99.90;;;;;;5126714;27;20059;-69
2021/09/04 00:46:38;;;;;;;12.75;8.25;;;14.90;99.90;;;;;;5097794;28;20093;-69
2021/09/04 00:49:04;;;;;;;12.45;8.77;;;14.80;99.90;;;;;;5097476;28;20039;-69
2021/09/04 00:51:29;;;;;;;12.38;9.52;;;14.90;99.90;;;;;;5098662;28;20039;-68
2021/09/04 00:53:55;;;;;;;13.80;10.57;;;14.80;99.90;;;;;;5096126;28;20032;-68
2021/09/04 00:56:22;;;;;;;13.75;10.30;;;14.80;99.90;;;;;;5096883;28;20039;-68
2021/09/04 00:58:47;;;;;;;11.63;10.50;;;14.70;99.90;;;;;;5126228;27;20101;-68
2021/09/04 01:01:13;;;;;;;13.70;10.60;;;14.70;99.90;;;;;;5093949;28;20036;-68
2021/09/04 01:03:38;;;;;;;12.25;10.95;;;14.70;99.90;;;;;;5097501;28;20073;-69
2021/09/04 01:06:04;;;;;;;15.57;10.68;;;14.70;99.90;;;;;;5094374;28;20040;-69
2021/09/04 01:08:30;;;;;;;12.50;10.95;;;14.70;99.90;;;;;;5126190;27;20083;-69
2021/09/04 01:10:55;;;;;;;15.07;10.70;;;14.70;99.90;;;;;;5093522;27;20508;-69
2021/09/04 01:13:22;;;;;;;13.05;11.57;;;14.70;99.90;;;;;;5093788;28;20046;-68
2021/09/04 01:15:48;;;;;;;14.18;10.23;;;14.70;99.90;;;;;;5094014;28;20135;-68
2021/09/04 01:18:14;;;;;;;11.50;10.30;;;14.70;99.90;;;;;;5095885;28;20035;-68
2021/09/04 01:20:41;;;;;;;11.88;9.63;;;14.70;99.90;;;;;;5093566;28;20046;-68
2021/09/04 01:23:07;;;;;;;13.90;9.82;;;14.70;99.90;;;;;;5094493;28;20072;-69
2021/09/04 01:25:34;;;;;;;9.93;8.93;;;14.60;99.90;;;;;;5095886;28;20071;-69
2021/09/04 01:28:02;;;;;;;11.07;7.95;;;14.50;99.90;;;;;;5096758;28;20482;-68
2021/09/04 01:30:28;;;;;;;11.43;8.68;;;14.60;99.90;;;;;;5094603;27;20048;-69
2021/09/04 01:32:54;;;;;;;12.68;8.43;;;14.60;99.90;;;;;;5094044;28;20043;-68
2021/09/04 01:35:22;;;;;;;11.18;8.35;;;14.60;99.90;;;;;;5126068;27;20035;-69
2021/09/04 01:37:49;;;;;;;11.60;8.02;;;14.60;99.90;;;;;;5093014;28;20040;-69
2021/09/04 01:40:16;;;;;;;11.68;7.97;;;14.60;99.90;;;;;;5097280;28;20046;-69
2021/09/04 01:42:43;;;;;;;13.82;8.48;;;14.60;99.90;;;;;;5097932;28;20085;-69
2021/09/04 01:45:10;;;;;;;11.68;8.20;;;14.50;99.90;;;;;;5095471;28;20667;-69
2021/09/04 01:47:36;;;;;;;13.82;8.70;;;14.50;99.90;;;;;;5094412;28;20047;-69
2021/09/04 01:50:04;;;;;;;17.05;8.27;;;14.50;99.90;;;;;;5095103;28;20401;-69
2021/09/04 01:52:29;;;;;;;16.88;9.40;;;14.50;99.90;;;;;;5096180;28;20036;-69
2021/09/04 01:54:55;;;;;;;12.43;7.70;;;14.50;99.90;;;;;;5098897;28;20062;-69
2021/09/04 01:57:21;;;;;;;10.50;8.65;;;14.50;99.90;;;;;;5096667;28;20035;-69
2021/09/04 01:59:46;;;;;;;11.15;8.15;;;14.50;99.90;;;;;;5092895;28;20048;-69
2021/09/04 02:02:13;;;;;;;12.57;7.63;;;14.50;99.90;;;;;;5107848;27;20089;-69
2021/09/04 02:04:39;;;;;;;12.38;8.32;;;14.50;99.90;;;;;;5091746;28;20059;-69
2021/09/04 02:07:05;;;;;;;12.82;7.53;;;14.50;99.90;;;;;;5094482;28;20397;-69
2021/09/04 02:09:31;;;;;;;10.15;7.25;;;14.50;99.90;;;;;;5096375;28;20042;-69
2021/09/04 02:11:57;;;;;;;10.68;6.75;;;14.60;99.90;;;;;;5094592;28;20035;-69
2021/09/04 02:14:22;;;;;;;9.80;6.28;;;14.60;99.90;;;;;;5092884;28;20036;-69
2021/09/04 02:16:48;;;;;;;8.30;6.05;;;14.50;99.90;;;;;;5092830;28;20049;-69
2021/09/04 02:19:14;;;;;;;12.20;6.60;;;14.50;99.90;;;;;;5094371;28;20051;-69
2021/09/04 02:21:39;;;;;;;13.27;7.30;;;14.50;99.90;;;;;;5093788;28;20094;-69
2021/09/04 02:24:05;;;;;;;10.98;8.48;;;14.50;99.90;;;;;;5096414;28;20042;-69
2021/09/04 02:26:31;;;;;;;11.05;8.20;;;14.60;99.90;;;;;;5097119;28;20039;-69
2021/09/04 02:28:57;;;;;;;13.30;7.35;;;14.60;99.90;;;;;;5101469;28;20036;-69
2021/09/04 02:31:24;;;;;;;9.45;7.32;;;14.60;99.90;;;;;;5105019;28;20039;-69
2021/09/04 02:33:51;;;;;;;10.60;8.43;;;14.60;99.90;;;;;;5101859;28;20040;-69
2021/09/04 02:36:17;;;;;;;12.90;8.68;;;14.60;99.90;;;;;;5100641;28;20039;-69
2021/09/04 02:38:43;;;;;;;13.50;8.57;;;14.50;99.90;;;;;;5096073;28;20040;-69
2021/09/04 02:41:08;;;;;;;15.57;9.60;;;14.50;99.90;;;;;;5098839;28;20097;-69
2021/09/04 02:43:34;;;;;;;13.20;8.38;;;14.50;99.90;;;;;;5104347;28;20035;-69
2021/09/04 02:46:00;;;;;;;12.73;8.88;;;14.40;99.90;;;;;;5103414;28;20042;-69
2021/09/04 02:48:25;;;;;;;12.25;8.75;;;14.40;99.90;;;;;;5097978;28;20501;-69
2021/09/04 02:50:51;;;;;;;9.45;8.43;;;14.50;99.90;;;;;;5103166;28;20043;-69
2021/09/04 02:53:16;;;;;;;12.68;9.93;;;14.40;99.90;;;;;;5101501;28;20032;-69
2021/09/04 02:55:42;;;;;;;10.93;9.32;;;14.50;99.90;;;;;;5101685;28;20044;-69
2021/09/04 02:58:08;;;;;;;16.00;10.57;;;14.40;99.90;;;;;;5097925;28;20034;-69
2021/09/04 03:00:33;;;;;;;13.02;9.75;;;14.40;99.90;;;;;;5100861;28;20036;-69
2021/09/04 03:02:59;;;;;;;15.38;9.98;;;14.50;99.90;;;;;;5099038;28;20079;-69
2021/09/04 03:05:24;;;;;;;14.43;11.18;;;14.50;99.90;;;;;;5099053;28;20062;-69
2021/09/04 03:07:50;;;;;;;14.77;11.02;;;14.40;99.90;;;;;;5100870;28;20088;-69
2021/09/04 03:10:16;;;;;;;13.68;11.13;;;14.40;99.90;;;;;;5100615;27;20589;-69
2021/09/04 03:12:42;;;;;;;15.10;10.73;;;14.40;99.90;;;;;;5099805;28;20031;-69
2021/09/04 03:15:08;;;;;;;12.23;10.50;;;14.40;99.90;;;;;;5103113;28;20501;-69
2021/09/04 03:17:33;;;;;;;12.65;11.10;;;14.30;99.90;;;;;;5100116;27;20063;-69
2021/09/04 03:19:59;;;;;;;14.43;10.07;;;14.40;99.90;;;;;;5135166;27;20043;-69
2021/09/04 03:22:25;;;;;;;14.00;10.43;;;14.40;99.90;;;;;;5105103;28;20118;-69
2021/09/04 03:24:50;;;;;;;10.50;9.43;;;14.40;99.90;;;;;;5104544;28;20154;-69
2021/09/04 03:27:16;;;;;;;14.50;9.45;;;14.30;99.90;;;;;;5105990;28;20051;-69
2021/09/04 03:29:42;;;;;;;12.50;9.13;;;14.20;99.90;;;;;;5104894;28;20503;-69
2021/09/04 03:32:07;;;;;;;16.10;9.27;;;14.40;99.90;;;;;;5103444;28;20054;-69
2021/09/04 03:34:33;;;;;;;9.15;7.55;;;14.40;99.90;;;;;;5102788;28;20138;-69
2021/09/04 03:36:59;;;;;;;11.88;8.43;;;14.30;99.90;;;;;;5103041;27;20147;-69
2021/09/04 03:39:24;;;;;;;11.23;7.25;;;14.30;99.90;;;;;;5102626;28;20088;-69
2021/09/04 03:41:50;;;;;;;8.57;7.43;;;14.30;99.90;;;;;;5106412;28;20823;-69
2021/09/04 03:44:15;;;;;;;11.23;7.20;;;14.30;99.90;;;;;;5102869;28;20066;-69
2021/09/04 03:46:41;;;;;;;10.05;7.80;;;14.40;99.90;;;;;;5102463;28;20130;-69
2021/09/04 03:49:07;;;;;;;13.65;7.70;;;14.40;99.90;;;;;;5102800;28;20092;-69
2021/09/04 03:51:32;;;;;;;10.20;6.45;;;14.40;99.90;;;;;;5100787;28;20046;-69
2021/09/04 03:53:59;;;;;;;10.10;6.68;;;14.40;99.90;;;;;;5103941;28;20047;-69
2021/09/04 03:56:25;;;;;;;10.15;7.43;;;14.40;99.90;;;;;;5102015;28;20397;-69
2021/09/04 03:58:51;;;;;;;10.82;6.72;;;14.40;99.90;;;;;;5103838;28;20047;-69
2021/09/04 04:01:18;;;;;;;8.50;6.00;;;14.40;99.90;;;;;;5107846;28;20044;-69
2021/09/04 04:03:44;;;;;;;8.70;5.93;;;14.40;99.90;;;;;;5102912;28;20085;-69
2021/09/04 04:06:09;;;;;;;8.27;5.78;;;14.40;99.90;;;;;;5104894;28;20048;-69
2021/09/04 04:08:35;;;;;;;9.65;5.32;;;14.40;99.90;;;;;;5100675;28;20044;-69
2021/09/04 04:11:09;;;;;;;7.97;5.90;;;14.40;99.90;;;;;;5103598;28;20548;-69
2021/09/04 04:13:35;;;;;;;9.13;5.95;;;14.40;99.90;;;;;;5107383;28;20110;-69
2021/09/04 04:16:01;;;;;;;9.95;5.43;;;14.40;99.90;;;;;;5106203;28;20094;-69
2021/09/04 04:18:27;;;;;;;5.95;4.57;;;14.40;99.90;;;;;;5105059;28;20082;-69
2021/09/04 04:20:52;;;;;;;7.55;5.13;;;14.40;99.90;;;;;;5102526;28;20035;-69
2021/09/04 04:23:18;;;;;;;8.77;4.63;;;14.40;99.90;;;;;;5099921;28;20383;-69
2021/09/04 04:25:43;;;;;;;9.70;5.50;;;14.40;99.90;;;;;;5101857;28;20113;-69
2021/09/04 04:28:09;;;;;;;6.28;5.18;;;14.40;99.90;;;;;;5106228;28;20035;-69
2021/09/04 04:30:35;;;;;;;8.45;4.88;;;14.30;99.90;;;;;;5100384;28;20040;-69
2021/09/04 04:33:00;;;;;;;10.43;5.18;;;14.30;99.90;;;;;;5104293;28;20450;-69
2021/09/04 04:35:26;;;;;;;12.32;5.00;;;14.30;99.90;;;;;;5103240;28;20039;-69
2021/09/04 04:37:52;;;;;;;11.25;4.95;;;14.40;99.90;;;;;;5101220;28;20035;-69
2021/09/04 04:40:17;;;;;;;7.15;4.40;;;14.40;99.90;;;;;;5099360;28;20036;-69
2021/09/04 04:42:43;;;;;;;10.52;4.80;;;14.40;99.90;;;;;;5100262;28;20143;-69
2021/09/04 04:45:09;;;;;;;10.30;4.78;;;14.40;99.90;;;;;;5130393;27;20039;-69
2021/09/04 04:47:34;;;;;;;7.28;4.53;;;14.40;99.90;;;;;;5105339;28;20146;-69
2021/09/04 04:50:00;;;;;;;7.68;4.47;;;14.40;99.90;;;;;;5119059;27;20036;-69
2021/09/04 04:52:26;;;;;;;8.43;4.63;;;14.40;99.90;;;;;;5102971;28;20031;-69
2021/09/04 04:54:52;;;;;;;7.50;4.38;;;14.40;99.90;;;;;;5100524;27;20725;-69
2021/09/04 04:57:18;;;;;;;5.57;4.15;;;14.40;99.90;;;;;;5101026;28;20507;-69
2021/09/04 04:59:43;;;;;;;8.07;4.55;;;14.40;99.90;;;;;;5104051;28;20092;-69
2021/09/04 05:02:09;;;;;;;6.10;3.85;;;14.40;99.90;;;;;;5102957;28;20047;-69
2021/09/04 05:04:35;;;;;;;11.13;5.03;;;14.40;99.90;;;;;;5102946;28;20039;-69
2021/09/04 05:07:01;;;;;;;7.30;4.72;;;14.40;99.90;;;;;;5102161;28;20054;-69
2021/09/04 05:09:26;;;;;;;5.30;4.00;;;14.40;99.90;;;;;;5134192;27;20074;-69
2021/09/04 05:11:52;;;;;;;8.55;4.38;;;14.40;99.90;;;;;;5103634;28;20398;-69
2021/09/04 05:14:17;;;;;;;6.40;4.50;;;14.50;99.90;;;;;;5099483;27;22507;-69
2021/09/04 05:16:43;;;;;;;11.68;5.30;;;14.50;99.90;;;;;;5125165;27;20104;-69
2021/09/04 05:19:08;;;;;;;8.82;5.13;;;14.50;99.90;;;;;;5095027;28;20038;-69
2021/09/04 05:21:34;;;;;;;7.55;4.93;;;14.50;99.90;;;;;;5096232;28;20039;-69
2021/09/04 05:23:59;;;;;;;7.85;5.10;;;14.50;99.90;;;;;;5095738;27;20084;-69
2021/09/04 05:26:25;;;;;;;10.85;4.75;;;14.50;99.90;;;;;;5096217;28;20075;-69
2021/09/04 05:28:51;;;;;;;11.05;5.15;;;14.50;99.90;;;;;;5097027;28;20326;-69
2021/09/04 05:31:16;;;;;;;7.70;4.53;;;14.50;99.90;;;;;;5094415;28;20481;-69
2021/09/04 05:33:42;;;;;;;6.05;3.35;;;14.60;99.90;;;;;;5093384;28;20032;-69
2021/09/04 05:36:08;;;;;;;6.38;3.28;;;14.60;99.90;;;;;;5097152;28;20051;-69
2021/09/04 05:38:37;;;;;;;7.60;3.10;;;14.60;99.90;;;;;;5091707;28;20036;-69
2021/09/04 05:41:04;;;;;;;8.45;3.00;;;14.60;99.90;;;;;;5097471;28;20044;-69
2021/09/04 05:43:29;;;;;;;8.38;2.90;;;14.60;99.90;;;;;;5094101;28;20054;-69
2021/09/04 05:45:55;;;;;;;13.32;4.13;;;14.50;99.90;;;;;;5094082;28;20394;-69
2021/09/04 05:48:21;;;;;;;6.28;3.58;;;14.50;99.90;;;;;;5093514;28;20046;-69
2021/09/04 05:50:46;;;;;;;6.85;3.78;;;14.50;99.90;;;;;;5085190;28;20032;-69
2021/09/04 05:53:12;;;;;;;5.47;3.55;;;14.60;99.90;;;;;;5087883;28;20122;-69
2021/09/04 05:55:39;;;;;;;6.55;2.92;;;14.60;99.90;;;;;;5090695;28;20557;-69
2021/09/04 05:58:05;;;;;;;6.80;3.03;;;14.60;99.90;;;;;;5090566;28;20031;-69
2021/09/04 06:00:31;;;;;;;9.15;3.00;;;14.60;99.90;;;;;;5090199;28;20051;-69
2021/09/04 06:02:57;;;;;;;7.47;3.17;;;14.60;99.90;;;;;;5092546;28;20065;-69
2021/09/04 06:05:22;;;;;;;7.32;3.28;;;14.60;99.90;;;;;;5091169;28;20039;-69
2021/09/04 06:07:48;;;;;;;9.13;3.55;;;14.60;99.90;;;;;;5091761;28;20054;-69
2021/09/04 06:10:15;;;;;;;10.68;3.08;;;14.60;99.90;;;;;;5094207;28;20046;-69
2021/09/04 06:12:41;;;;;;;9.48;3.55;;;14.60;99.90;;;;;;5096753;28;20051;-69
2021/09/04 06:15:07;;;;;;;5.20;3.08;;;14.70;99.90;;;;;;5100477;28;20526;-69
2021/09/04 06:17:33;;;;;;;7.15;2.47;;;14.70;99.90;;;;;;5101524;28;20063;-69
2021/09/04 06:19:58;;;;;;;8.05;3.15;;;14.70;99.90;;;;;;5097889;28;20074;-69
2021/09/04 06:22:26;;;;;;;5.05;2.40;;;14.80;99.90;;;;;;5092135;28;20371;-69
2021/09/04 06:24:52;;;;;;;8.45;3.10;;;14.80;99.90;;;;;;5095028;28;20093;-69
2021/09/04 06:27:18;;;;;;;9.20;3.15;;;14.80;99.90;;;;;;5093620;28;20035;-69
2021/09/04 06:29:43;;;;;;;4.70;2.55;;;14.90;99.90;;;;;;5094081;28;20031;-69
2021/09/04 06:32:09;;;;;;;8.93;3.17;;;14.90;99.90;;;;;;5089949;28;20084;-69
2021/09/04 06:34:35;;;;;;;5.10;2.45;;;14.90;99.90;;;;;;5088731;28;20036;-69
2021/09/04 06:37:00;;;;;;;5.97;2.95;;;14.90;99.90;;;;;;5124291;27;20036;-69
2021/09/04 06:39:26;;;;;;;8.82;3.28;;;15.00;99.90;;;;;;5091279;28;20036;-69
2021/09/04 06:41:51;;;;;;;8.13;2.50;;;15.00;99.90;;;;;;5093894;28;20078;-69
2021/09/04 06:44:17;;;;;;;10.52;2.83;;;15.00;99.90;;;;;;5093374;28;20481;-69
2021/09/04 06:46:42;;;;;;;6.38;2.55;;;15.00;99.90;;;;;;5088848;28;20095;-69
2021/09/04 06:49:08;;;;;;;7.18;2.40;;;15.10;99.90;;;;;;5093480;28;20039;-69
2021/09/04 06:51:34;;;;;;;10.30;2.70;;;15.00;99.90;;;;;;5092207;28;20036;-69
2021/09/04 06:53:59;;;;;;;7.97;2.78;;;15.10;99.90;;;;;;5130444;27;20051;-69
2021/09/04 06:56:26;;;;;;;5.63;2.65;;;15.10;99.90;;;;;;5097009;28;20043;-69
2021/09/04 06:58:51;;;;;;;6.25;2.40;;;15.10;99.90;;;;;;5097801;28;20047;-69
2021/09/04 07:01:17;;;;;;;6.82;2.90;;;15.20;99.90;;;;;;5096921;27;20043;-69
2021/09/04 07:03:43;;;;;;;7.13;2.60;;;15.30;99.90;;;;;;5099863;28;20778;-69
2021/09/04 07:06:09;;;;;;;6.38;2.60;;;15.30;99.90;;;;;;5100737;28;20055;-69
2021/09/04 07:08:35;;;;;;;5.95;2.75;;;15.30;99.90;;;;;;5098179;28;20114;-69
2021/09/04 07:11:00;;;;;;;4.30;2.38;;;15.40;99.90;;;;;;5101702;28;20035;-69
2021/09/04 07:13:26;;;;;;;4.18;2.80;;;15.50;99.90;;;;;;5098731;27;20482;-69
2021/09/04 07:15:51;;;;;;;6.03;2.45;;;15.40;99.90;;;;;;5097345;28;20059;-69
2021/09/04 07:18:20;;;;;;;8.50;2.78;;;15.40;99.90;;;;;;5130819;27;20442;-69
2021/09/04 07:20:46;;;;;;;5.03;3.10;;;15.40;99.90;;;;;;5097803;28;20120;-69
2021/09/04 07:23:12;;;;;;;7.65;2.92;;;15.40;99.90;;;;;;5098808;28;20051;-69
2021/09/04 07:25:37;;;;;;;6.78;3.30;;;15.50;99.90;;;;;;5098309;28;20036;-69
2021/09/04 07:28:04;;;;;;;6.97;2.67;;;15.50;99.90;;;;;;5098432;28;20042;-69
2021/09/04 07:30:30;;;;;;;7.35;2.75;;;15.60;99.90;;;;;;5099761;28;20581;-69
2021/09/04 07:32:56;;;;;;;7.13;3.17;;;15.70;99.90;;;;;;5093576;28;20039;-68
2021/09/04 07:35:21;;;;;;;6.60;3.78;;;15.70;99.90;;;;;;5094796;27;20483;-68
2021/09/04 07:37:47;;;;;;;7.03;3.33;;;15.80;99.90;;;;;;5095125;28;20442;-69
2021/09/04 07:40:13;;;;;;;8.35;3.47;;;15.80;99.90;;;;;;5097636;28;20130;-69
2021/09/04 07:42:38;;;;;;;7.82;4.05;;;15.80;99.90;;;;;;5095988;28;20028;-69
2021/09/04 07:45:05;;;;;;;6.25;3.72;;;15.70;99.90;;;;;;5096634;28;20035;-69
2021/09/04 07:47:30;;;;;;;7.40;3.50;;;15.70;99.90;;;;;;5096428;28;20047;-69
2021/09/04 07:49:56;;;;;;;8.10;3.42;;;15.80;99.90;;;;;;5098354;28;20047;-69
2021/09/04 07:52:22;;;;;;;5.00;3.30;;;15.80;99.90;;;;;;5098129;28;20038;-68
2021/09/04 07:54:47;;;;;;;8.07;3.22;;;15.80;99.90;;;;;;5098887;28;20047;-68
2021/09/04 07:57:13;;;;;;;6.55;2.70;;;15.80;99.90;;;;;;5097626;28;20508;-69
2021/09/04 07:59:38;;;;;;;5.90;2.75;;;15.80;99.90;;;;;;5083058;28;20893;-69
2021/09/04 08:02:04;;;;;;;4.13;2.22;;;15.90;99.90;;;;;;5099134;28;20032;-68
2021/09/04 08:04:30;;;;;;;7.97;2.60;;;15.90;99.90;;;;;;5090621;28;20040;-68
2021/09/04 08:06:55;;;;;;;9.07;2.75;;;16.00;99.90;;;;;;5091810;28;20052;-68
2021/09/04 08:09:21;;;;;;;5.70;1.73;;;16.00;99.90;;;;;;5094890;28;20035;-69
2021/09/04 08:11:47;;;;;;;9.57;2.40;;;16.00;99.90;;;;;;5127954;27;20035;-69
2021/09/04 08:14:12;;;;;;;8.43;2.55;;;16.10;99.90;;;;;;5096208;28;20062;-68
2021/09/04 08:16:38;;;;;;;7.60;3.25;;;16.10;99.90;;;;;;5095305;28;20082;-68
2021/09/04 08:19:04;;;;;;;5.20;2.72;;;16.20;99.90;;;;;;5092058;28;20071;-68
2021/09/04 08:21:29;;;;;;;6.47;3.00;;;16.30;99.90;;;;;;5097633;27;20122;-69
2021/09/04 08:23:55;;;;;;;4.45;2.40;;;16.40;99.90;;;;;;5098373;27;20590;-69
2021/09/04 08:26:21;;;;;;;5.25;3.35;;;16.40;99.90;;;;;;5093871;28;20036;-68
2021/09/04 08:28:46;;;;;;;5.93;2.65;;;16.40;99.90;;;;;;5100101;27;20051;-68
2021/09/04 08:31:14;;;;;;;4.63;2.22;;;16.40;99.90;;;;;;5095586;28;20447;-68
2021/09/04 08:33:39;;;;;;;4.95;2.13;;;16.40;99.90;;;;;;5097649;28;20639;-69
2021/09/04 08:36:05;;;;;;;3.90;2.38;;;16.40;99.90;;;;;;5094147;27;20163;-68
2021/09/04 08:38:30;;;;;;;4.85;2.60;;;16.30;99.90;;;;;;5126651;27;20043;-68
2021/09/04 08:40:56;;;;;;;6.93;2.65;;;16.30;99.90;;;;;;5094514;27;20528;-68
2021/09/04 08:43:22;;;;;;;5.18;1.90;;;16.50;99.90;;;;;;5097952;28;20097;-70
2021/09/04 08:45:48;;;;;;;5.40;1.60;;;16.70;99.90;;;;;;5095720;28;20055;-68
2021/09/04 08:48:14;;;;;;;8.88;1.70;;;16.90;99.90;;;;;;5099111;28;20123;-68
2021/09/04 08:50:40;;;;;;;3.42;1.55;;;17.10;99.90;;;;;;5097422;27;20055;-68
2021/09/04 08:53:15;;;;;;;6.43;2.00;;;17.10;99.90;;;;;;5095897;28;20035;-69
2021/09/04 08:55:41;;;;;;;3.65;1.75;;;17.00;99.90;;;;;;5125564;27;20099;-68
2021/09/04 08:58:08;;;;;;;3.20;1.65;;;17.10;99.90;;;;;;5091115;28;20032;-68
2021/09/04 09:00:37;;;;;;;5.65;2.00;;;17.40;99.90;;;;;;5083852;28;20085;-68
2021/09/04 09:03:25;;;;;;;3.65;1.40;;;17.40;99.90;;;;;;5095980;28;20036;-69
2021/09/04 09:05:52;;;;;;;4.25;1.88;;;17.60;99.90;;;;;;5095612;27;20051;-68
2021/09/04 09:08:23;;;;;;;4.72;2.17;;;17.70;99.90;;;;;;5093033;28;20508;-68
2021/09/04 09:10:50;;;;;;;4.82;1.50;;;17.70;99.90;;;;;;5093594;27;20079;-68
2021/09/04 09:13:22;;;;;;;4.32;1.77;;;17.70;99.90;;;;;;5097645;28;20118;-70
2021/09/04 09:15:48;;;;;;;2.83;1.35;;;17.70;99.90;;;;;;5097141;27;20036;-68
2021/09/04 09:18:16;;;;;;;6.03;2.05;;;17.90;99.90;;;;;;5086618;28;20039;-68
2021/09/04 09:20:47;;;;;;;9.23;2.35;;;18.00;99.90;;;;;;5090414;28;20051;-68
2021/09/04 09:23:18;;;;;;;4.28;2.10;;;18.10;99.90;;;;;;5091799;28;20138;-70
2021/09/04 09:25:46;;;;;;;5.38;1.90;;;18.20;99.90;;;;;;5096417;28;20023;-68
2021/09/04 09:28:17;;;;;;;6.38;1.85;;;17.90;99.90;;;;;;5095331;27;20644;-69
2021/09/04 09:30:52;;;;;;;5.45;2.03;;;18.00;99.90;;;;;;5092040;28;20114;-71
2021/09/04 09:33:20;;;;;;;4.97;1.92;;;18.10;99.90;;;;;;5093796;28;20448;-71
2021/09/04 09:35:50;;;;;;;6.07;2.33;;;18.30;99.90;;;;;;5095286;28;20109;-71
2021/09/04 09:38:18;;;;;;;4.10;2.10;;;18.10;99.90;;;;;;5093364;28;20346;-71
2021/09/04 09:40:45;;;;;;;9.18;2.83;;;18.20;99.90;;;;;;5095829;28;20028;-71
2021/09/04 09:43:29;;;;;;;8.95;2.78;;;18.30;99.90;;;;;;5092675;28;20039;-69
2021/09/04 09:45:56;;;;;;;5.20;1.95;;;18.40;99.90;;;;;;5092013;28;20031;-71
2021/09/04 09:48:27;;;;;;;5.13;1.92;;;18.60;99.90;;;;;;5095032;28;20036;-70
2021/09/04 09:50:54;;;;;;;6.07;2.20;;;18.70;99.90;;;;;;5092685;28;20047;-71
2021/09/04 09:53:21;;;;;;;12.18;2.47;;;18.80;99.90;;;;;;5092586;28;20027;-71
2021/09/04 09:55:49;;;;;;;4.55;2.00;;;18.80;99.90;;;;;;5123756;27;20036;-71
2021/09/04 09:58:16;;;;;;;4.53;1.85;;;18.80;99.90;;;;;;5095298;28;20039;-71
2021/09/04 10:00:43;;;;;;;4.28;1.85;;;18.80;99.90;;;;;;5094805;28;20043;-70
2021/09/04 10:03:11;;;;;;;5.72;2.63;;;18.90;99.90;;;;;;5095612;28;20031;-71
2021/09/04 10:05:37;;;;;;;4.15;2.20;;;19.00;99.90;;;;;;5125238;27;20358;-71
2021/09/04 10:08:04;;;;;;;6.00;2.17;;;19.10;99.90;;;;;;5092923;28;20061;-71
2021/09/04 10:10:32;;;;;;;5.45;1.77;;;19.20;99.90;;;;;;5096677;28;20031;-71
2021/09/04 10:12:58;;;;;;;6.70;2.45;;;19.30;99.90;;;;;;5095488;28;20040;-71
2021/09/04 10:15:26;;;;;;;7.18;2.33;;;19.30;99.90;;;;;;5095680;28;20035;-71
2021/09/04 10:17:55;;;;;;;2.88;2.35;;;19.30;99.90;;;;;;5095308;28;20130;-71
2021/09/04 10:20:23;;;;;;;4.47;2.05;;;19.30;99.90;;;;;;5093492;28;20522;-71
2021/09/04 10:22:49;;;;;;;5.25;2.20;;;19.20;99.90;;;;;;5095128;28;20600;-71
2021/09/04 10:25:17;;;;;;;7.80;2.67;;;19.10;99.90;;;;;;5094283;28;20040;-71
2021/09/04 10:27:45;;;;;;;6.60;2.50;;;19.00;99.90;;;;;;5094403;28;21063;-71
2021/09/04 10:30:26;;;;;;;5.25;2.53;;;19.10;99.90;;;;;;5100104;28;20047;-71
2021/09/04 10:32:58;;;;;;;4.65;2.25;;;19.20;99.90;;;;;;5096198;28;20499;-71
2021/09/04 10:35:48;;;;;;;11.00;3.45;;;19.50;99.90;;;;;;5101065;28;20039;-71
2021/09/04 10:38:20;;;;;;;7.03;2.78;;;19.70;99.90;;;;;;5100196;28;20039;-71
2021/09/04 10:41:13;;;;;;;6.43;2.45;;;19.80;99.90;;;;;;5099402;28;20092;-71
2021/09/04 10:43:48;;;;;;;5.50;2.58;;;20.00;99.90;;;;;;5089275;28;20046;-71
2021/09/04 10:46:15;;;;;;;7.05;3.17;;;20.20;99.90;;;;;;5097825;28;20047;-71
2021/09/04 10:48:42;;;;;;;5.70;2.92;;;20.40;99.90;;;;;;5097260;28;20032;-71
2021/09/04 10:51:10;;;;;;;4.53;3.67;;;20.40;99.90;;;;;;5099613;28;20040;-71
2021/09/04 10:53:48;;;;;;;9.63;3.60;;;20.30;99.90;;;;;;5097012;28;20059;-71
2021/09/04 10:56:19;;;;;;;7.22;2.95;;;20.00;99.90;;;;;;5105207;27;20070;-71
2021/09/04 10:58:45;;;;;;;6.95;3.50;;;19.90;99.90;;;;;;5098050;28;20035;-71
2021/09/04 11:01:17;;;;;;;6.88;3.10;;;19.60;99.90;;;;;;5097950;28;20027;-71
2021/09/04 11:03:43;;;;;;;7.07;3.35;;;19.60;99.90;;;;;;5097206;28;20040;-70
2021/09/04 11:06:18;;;;;;;5.68;3.03;;;19.90;99.90;;;;;;5098459;28;20051;-71
2021/09/04 11:08:45;;;;;;;6.63;3.92;;;20.00;99.90;;;;;;5097482;28;20055;-71
2021/09/04 11:11:16;;;;;;;9.65;3.30;;;20.00;99.90;;;;;;5096683;28;20119;-70
2021/09/04 11:13:47;;;;;;;8.35;3.40;;;20.10;99.90;;;;;;5098208;28;20633;-70
2021/09/04 11:16:38;;;;;;;8.20;3.00;;;20.50;99.90;;;;;;5097240;28;20039;-71
2021/09/04 11:19:13;;;;;;;6.47;3.45;;;20.80;99.90;;;;;;5097226;28;20502;-71
2021/09/04 11:22:06;;;;;;;9.98;4.10;;;21.00;99.90;;;;;;5095901;28;20868;-70
2021/09/04 11:24:40;;;;;;;6.93;3.42;;;21.20;99.90;;;;;;5094615;28;20373;-70
2021/09/04 11:27:07;;;;;;;6.28;3.80;;;21.20;99.90;;;;;;5099199;28;20071;-70
2021/09/04 11:29:40;;;;;;;10.40;4.22;;;21.30;99.90;;;;;;5097216;28;20043;-70
2021/09/04 11:32:06;;;;;;;8.18;4.70;;;21.50;99.90;;;;;;5095112;28;20031;-70
2021/09/04 11:34:41;;;;;;;6.97;4.13;;;21.60;99.90;;;;;;5098467;28;20047;-70
2021/09/04 11:37:17;;;;;;;;;;;21.60;99.90;;;;;;5096586;28;20043;-70
2021/09/04 11:39:42;;;;;;;8.80;4.40;;;21.20;99.90;;;;;;5096936;27;21252;-70
2021/09/04 11:42:17;;;;;;;16.55;5.63;;;21.20;99.90;;;;;;5097774;28;20130;-70
2021/09/04 11:44:50;;;;;;;12.25;4.35;;;20.80;99.90;;;;;;5097856;28;20085;-70
2021/09/04 11:47:17;;;;;;;7.40;4.45;;;20.60;99.90;;;;;;5100086;28;20044;-70
2021/09/04 11:49:47;;;;;;;9.27;4.47;;;20.50;99.90;;;;;;5096589;28;20135;-70
2021/09/04 11:52:25;;;;;;;9.32;4.72;;;20.70;99.90;;;;;;5095114;28;20132;-70
2021/09/04 11:55:01;;;;;;;9.70;4.22;;;20.70;99.90;;;;;;5097539;28;20131;-70
2021/09/04 11:57:28;;;;;;;7.07;4.75;;;20.90;99.90;;;;;;5095543;28;20039;-70
2021/09/04 12:00:15;;;;;;;7.72;4.10;;;20.90;99.90;;;;;;5095625;28;20077;-70
2021/09/04 12:02:43;;;;;;;6.80;4.25;;;21.00;99.90;;;;;;5094738;28;20032;-70
2021/09/04 12:05:09;;;;;;;9.60;5.90;;;21.20;99.90;;;;;;5095514;28;20047;-70
2021/09/04 12:07:36;;;;;;;8.73;5.38;;;21.20;99.90;;;;;;5098304;28;20071;-70
2021/09/04 12:10:05;;;;;;;8.35;5.07;;;21.30;99.90;;;;;;5096970;28;20161;-70
2021/09/04 12:12:31;;;;;;;6.82;4.85;;;21.30;99.90;;;;;;5096454;28;20032;-70
2021/09/04 12:14:58;;;;;;;13.30;5.93;;;21.60;99.90;;;;;;5098308;28;20042;-70
2021/09/04 12:17:24;;;;;;;8.38;5.30;;;21.20;99.90;;;;;;5094536;28;20035;-70
2021/09/04 12:19:50;;;;;;;9.02;4.70;;;21.20;99.90;;;;;;5099302;28;20104;-71
2021/09/04 12:22:17;;;;;;;9.70;5.93;;;21.30;99.90;;;;;;5096237;28;20058;-70
2021/09/04 12:24:42;;;;;;;8.82;5.60;;;21.40;99.90;;;;;;5095867;28;20032;-71
2021/09/04 12:27:09;;;;;;;13.10;6.15;;;21.30;99.90;;;;;;5095736;28;20098;-70
2021/09/04 12:29:35;;;;;;;6.95;4.97;;;21.10;99.90;;;;;;5095956;27;20027;-70
2021/09/04 12:32:07;;;;;;;9.88;6.07;;;21.10;99.90;;;;;;5097798;28;20042;-70
2021/09/04 12:34:34;;;;;;;10.05;5.63;;;20.90;99.90;;;;;;5096552;28;20044;-70
2021/09/04 12:36:59;;;;;;;9.52;6.43;;;21.00;99.90;;;;;;5095413;28;20063;-70
2021/09/04 12:39:28;;;;;;;10.82;6.22;;;21.10;99.90;;;;;;5096129;28;20070;-70
2021/09/04 12:42:03;;;;;;;13.35;6.97;;;21.20;99.90;;;;;;5097759;28;20043;-70